Time;durP1;ratioP1;P1;durP2;ratioP2;P2;SDS_P1;SDS_P2;PMS_P1;PMS_P2;Temp;Humidity;BMP_temperature;BMP_pressure;BME280_temperature;BME280_humidity;BME280_pressure;Samples;Min_cycle;Max_cycle;Signal;HPM_P1;HPM_P2
2020/12/28 00:00:24;;;;;;;4.07;2.20;;;3.00;92.90;;;;;;5026173;28;20464;-66
2020/12/28 00:02:50;;;;;;;3.33;2.30;;;3.00;92.90;;;;;;5027419;28;20067;-67
2020/12/28 00:05:15;;;;;;;3.20;2.05;;;3.00;93.10;;;;;;5026602;28;20037;-66
2020/12/28 00:07:41;;;;;;;3.88;2.10;;;3.00;92.80;;;;;;5050476;22;20131;-65
2020/12/28 00:10:11;;;;;;;4.75;2.67;;;3.00;93.00;;;;;;5049274;28;20666;-66
2020/12/28 00:12:46;;;;;;;5.53;2.37;;;2.90;93.00;;;;;;5042961;28;20455;-66
2020/12/28 00:15:23;;;;;;;4.20;2.38;;;3.00;93.10;;;;;;5043377;28;20394;-64
2020/12/28 00:17:50;;;;;;;4.05;2.15;;;2.90;92.90;;;;;;5044106;28;20021;-65
2020/12/28 00:20:17;;;;;;;4.95;2.42;;;3.00;92.70;;;;;;5042624;28;20142;-66
2020/12/28 00:22:44;;;;;;;7.15;2.40;;;2.90;92.80;;;;;;5043427;28;20521;-64
2020/12/28 00:25:09;;;;;;;5.85;2.85;;;2.90;92.90;;;;;;5042088;28;20119;-65
2020/12/28 00:27:35;;;;;;;4.03;2.30;;;3.00;92.80;;;;;;5043140;28;20052;-65
2020/12/28 00:30:02;;;;;;;3.97;2.25;;;2.90;93.00;;;;;;5043161;28;20028;-66
2020/12/28 00:32:28;;;;;;;4.35;2.60;;;3.00;92.70;;;;;;5043844;28;20145;-66
2020/12/28 00:34:53;;;;;;;4.70;2.35;;;3.00;92.70;;;;;;5041126;28;20032;-64
2020/12/28 00:37:19;;;;;;;5.00;2.22;;;3.00;92.70;;;;;;5042848;28;20090;-65
2020/12/28 00:39:45;;;;;;;5.07;2.40;;;2.90;93.00;;;;;;5043347;28;20556;-65
2020/12/28 00:42:10;;;;;;;3.40;2.05;;;2.90;93.00;;;;;;5043047;28;20097;-65
2020/12/28 00:44:36;;;;;;;3.95;2.30;;;3.00;92.60;;;;;;5042786;28;20993;-64
2020/12/28 00:47:02;;;;;;;3.85;2.15;;;3.00;92.80;;;;;;5043691;28;20029;-65
2020/12/28 00:49:27;;;;;;;6.28;2.40;;;3.00;92.50;;;;;;5061911;28;20020;-66
2020/12/28 00:51:53;;;;;;;4.40;2.55;;;3.00;92.50;;;;;;5035247;28;20064;-66
2020/12/28 00:54:18;;;;;;;4.25;2.25;;;3.10;92.40;;;;;;5044702;28;20036;-65
2020/12/28 00:56:44;;;;;;;3.25;2.20;;;3.10;92.30;;;;;;5057925;28;20021;-66
2020/12/28 00:59:10;;;;;;;4.30;2.28;;;3.10;92.10;;;;;;5065041;28;20076;-66
2020/12/28 01:01:35;;;;;;;4.43;2.40;;;3.10;92.10;;;;;;5062166;28;20039;-65
2020/12/28 01:04:01;;;;;;;3.80;2.28;;;3.10;92.00;;;;;;5054870;28;20071;-66
2020/12/28 01:06:26;;;;;;;4.50;2.25;;;3.10;92.20;;;;;;5064590;28;20020;-65
2020/12/28 01:08:52;;;;;;;3.70;1.90;;;3.10;92.20;;;;;;5065309;28;20034;-66
2020/12/28 01:11:21;;;;;;;5.47;2.10;;;3.10;92.20;;;;;;5035932;28;20047;-65
2020/12/28 01:13:46;;;;;;;3.67;2.10;;;3.10;92.20;;;;;;5060487;28;20395;-66
2020/12/28 01:16:12;;;;;;;4.40;1.98;;;3.10;92.00;;;;;;5069614;28;20024;-66
2020/12/28 01:18:40;;;;;;;2.70;1.85;;;3.10;92.30;;;;;;5065270;28;20051;-66
2020/12/28 01:21:05;;;;;;;3.22;2.17;;;3.10;92.00;;;;;;5055447;28;20098;-66
2020/12/28 01:23:31;;;;;;;4.45;2.30;;;3.10;92.00;;;;;;5065743;28;20029;-66
2020/12/28 01:25:56;;;;;;;2.53;1.85;;;3.10;92.10;;;;;;5063835;28;20082;-65
2020/12/28 01:28:22;;;;;;;3.88;2.13;;;3.20;91.40;;;;;;5065371;28;20039;-66
2020/12/28 01:30:47;;;;;;;2.08;1.58;;;3.10;91.70;;;;;;5063445;28;20520;-65
2020/12/28 01:33:13;;;;;;;3.42;2.20;;;3.20;91.50;;;;;;5050174;28;20056;-65
2020/12/28 01:35:39;;;;;;;2.85;1.95;;;3.30;91.10;;;;;;5049913;28;20118;-66
2020/12/28 01:38:04;;;;;;;2.30;1.50;;;3.30;91.10;;;;;;5065286;28;20028;-65
2020/12/28 01:40:33;;;;;;;6.40;1.95;;;3.40;90.90;;;;;;5061788;28;20035;-66
2020/12/28 01:42:59;;;;;;;3.35;2.00;;;3.30;91.10;;;;;;5064911;28;20108;-66
2020/12/28 01:45:25;;;;;;;3.38;2.03;;;3.30;91.20;;;;;;5059656;28;20162;-66
2020/12/28 01:47:51;;;;;;;3.42;1.95;;;3.30;91.20;;;;;;5072009;28;20157;-66
2020/12/28 01:50:17;;;;;;;3.88;1.92;;;3.30;91.30;;;;;;5049575;28;20040;-65
2020/12/28 01:52:43;;;;;;;2.92;1.90;;;3.30;91.40;;;;;;5063834;28;20058;-66
2020/12/28 01:55:09;;;;;;;2.38;1.73;;;3.30;91.00;;;;;;5062448;28;20044;-66
2020/12/28 01:57:35;;;;;;;3.28;1.83;;;3.40;90.70;;;;;;5060455;28;20377;-66
2020/12/28 02:00:01;;;;;;;3.58;1.73;;;3.40;90.70;;;;;;5067430;28;20031;-66
2020/12/28 02:02:28;;;;;;;3.45;1.75;;;3.30;90.80;;;;;;5065753;28;20178;-66
2020/12/28 02:04:54;;;;;;;3.35;1.98;;;3.40;90.60;;;;;;5065333;28;20065;-66
2020/12/28 02:07:22;;;;;;;2.75;1.75;;;3.30;90.90;;;;;;5056809;28;20025;-66
2020/12/28 02:09:48;;;;;;;3.28;1.80;;;3.30;91.00;;;;;;5053357;28;20342;-65
2020/12/28 02:12:13;;;;;;;2.83;1.80;;;3.40;90.60;;;;;;5039267;28;20036;-65
2020/12/28 02:14:40;;;;;;;3.20;1.85;;;3.40;90.50;;;;;;5061676;28;20016;-66
2020/12/28 02:17:05;;;;;;;3.17;1.70;;;3.40;90.80;;;;;;5067641;28;20203;-66
2020/12/28 02:19:31;;;;;;;2.83;1.50;;;3.40;90.50;;;;;;5068755;28;20036;-66
2020/12/28 02:21:57;;;;;;;2.58;1.58;;;3.40;90.50;;;;;;5067692;28;20496;-66
2020/12/28 02:24:23;;;;;;;2.85;1.80;;;3.40;90.40;;;;;;5066413;28;20051;-66
2020/12/28 02:26:48;;;;;;;2.90;1.52;;;3.40;90.50;;;;;;5064104;28;20107;-66
2020/12/28 02:29:14;;;;;;;3.00;1.90;;;3.40;90.70;;;;;;5067861;28;20024;-65
2020/12/28 02:31:40;;;;;;;2.63;1.80;;;3.30;91.00;;;;;;5067432;28;20073;-66
2020/12/28 02:34:06;;;;;;;2.85;1.70;;;3.40;90.70;;;;;;5072776;28;20032;-66
2020/12/28 02:36:31;;;;;;;4.47;1.60;;;3.40;90.80;;;;;;5073327;28;20082;-66
2020/12/28 02:38:58;;;;;;;2.15;1.52;;;3.40;90.60;;;;;;5067943;28;20055;-66
2020/12/28 02:41:25;;;;;;;2.97;1.33;;;3.40;90.70;;;;;;5067722;28;20024;-66
2020/12/28 02:43:51;;;;;;;4.88;1.50;;;3.50;90.80;;;;;;5067537;28;20040;-66
2020/12/28 02:46:17;;;;;;;2.58;1.40;;;3.50;90.50;;;;;;5059396;28;20983;-66
2020/12/28 02:48:43;;;;;;;1.90;1.30;;;3.40;91.00;;;;;;5064134;28;20028;-66
2020/12/28 02:51:11;;;;;;;2.35;1.50;;;3.50;90.60;;;;;;5055708;28;20040;-66
2020/12/28 02:53:37;;;;;;;2.13;1.30;;;3.50;90.40;;;;;;5068563;28;20115;-66
2020/12/28 02:56:02;;;;;;;3.63;1.33;;;3.60;90.50;;;;;;5048530;28;20108;-66
2020/12/28 02:58:28;;;;;;;2.58;1.20;;;3.50;90.80;;;;;;5045260;28;20491;-66
2020/12/28 03:00:54;;;;;;;2.08;1.40;;;3.50;90.60;;;;;;5055871;28;20056;-66
2020/12/28 03:03:19;;;;;;;2.88;1.30;;;3.60;90.40;;;;;;5061623;28;20051;-65
2020/12/28 03:05:45;;;;;;;2.28;1.30;;;3.60;90.60;;;;;;5067645;28;20115;-65
2020/12/28 03:08:10;;;;;;;2.13;1.23;;;3.60;90.40;;;;;;5066357;28;20059;-66
2020/12/28 03:10:36;;;;;;;2.80;1.13;;;3.60;90.60;;;;;;5058996;28;20037;-66
2020/12/28 03:13:01;;;;;;;3.38;1.30;;;3.60;90.60;;;;;;5060229;28;20123;-66
2020/12/28 03:15:27;;;;;;;1.45;1.27;;;3.60;90.50;;;;;;5080114;28;20027;-66
2020/12/28 03:17:53;;;;;;;3.05;1.23;;;3.60;90.60;;;;;;5066627;28;20082;-66
2020/12/28 03:20:18;;;;;;;1.50;1.00;;;3.60;90.60;;;;;;5067219;28;20031;-67
2020/12/28 03:22:44;;;;;;;1.50;1.10;;;3.50;90.90;;;;;;5063099;28;20661;-66
2020/12/28 03:25:09;;;;;;;2.80;1.40;;;3.50;90.90;;;;;;5077998;28;20063;-66
2020/12/28 03:27:35;;;;;;;1.77;1.30;;;3.50;91.00;;;;;;5073627;28;20583;-66
2020/12/28 03:30:00;;;;;;;1.67;1.20;;;3.50;90.90;;;;;;5066769;28;20036;-65
2020/12/28 03:32:26;;;;;;;1.35;0.95;;;3.50;90.90;;;;;;5064680;28;20096;-66
2020/12/28 03:34:51;;;;;;;2.60;1.35;;;3.60;90.80;;;;;;5067418;28;20270;-66
2020/12/28 03:37:17;;;;;;;1.45;1.10;;;3.60;91.00;;;;;;5059324;28;20028;-66
2020/12/28 03:39:43;;;;;;;1.55;0.90;;;3.60;90.80;;;;;;5070996;28;20048;-66
2020/12/28 03:42:08;;;;;;;2.30;1.05;;;3.70;90.50;;;;;;5062066;28;20047;-66
2020/12/28 03:44:34;;;;;;;1.98;1.05;;;3.60;90.70;;;;;;5061276;28;20170;-65
2020/12/28 03:46:59;;;;;;;1.25;0.90;;;3.60;90.70;;;;;;5075149;28;20103;-66
2020/12/28 03:49:25;;;;;;;1.48;1.00;;;3.60;91.00;;;;;;5080145;28;20028;-66
2020/12/28 03:51:50;;;;;;;1.00;0.90;;;3.60;91.10;;;;;;5065337;28;20428;-66
2020/12/28 03:54:16;;;;;;;2.33;1.20;;;3.60;90.90;;;;;;5064790;28;20032;-66
2020/12/28 03:56:42;;;;;;;2.38;1.10;;;3.60;90.90;;;;;;5066211;28;20044;-66
2020/12/28 03:59:07;;;;;;;1.23;0.93;;;3.60;90.90;;;;;;5065376;28;20020;-66
2020/12/28 04:01:33;;;;;;;1.33;0.80;;;3.50;91.10;;;;;;5047620;28;20044;-66
2020/12/28 04:03:59;;;;;;;1.17;0.90;;;3.60;91.00;;;;;;5065159;28;20032;-65
2020/12/28 04:06:25;;;;;;;1.15;0.90;;;3.50;91.20;;;;;;5060203;28;20476;-66
2020/12/28 04:08:50;;;;;;;0.70;0.70;;;3.60;91.00;;;;;;5066145;28;20032;-66
2020/12/28 04:11:16;;;;;;;1.95;0.98;;;3.50;91.30;;;;;;5048584;28;20173;-65
2020/12/28 04:13:41;;;;;;;0.90;0.90;;;3.40;91.60;;;;;;5066182;28;20032;-66
2020/12/28 04:16:07;;;;;;;2.92;1.00;;;3.40;91.60;;;;;;5061261;28;20107;-66
2020/12/28 04:18:32;;;;;;;1.52;0.93;;;3.30;91.70;;;;;;5060284;28;20449;-66
2020/12/28 04:20:58;;;;;;;1.35;1.00;;;3.30;91.70;;;;;;5066149;28;20043;-66
2020/12/28 04:23:23;;;;;;;1.10;0.90;;;3.30;91.80;;;;;;5065418;28;20102;-66
2020/12/28 04:25:49;;;;;;;1.52;1.00;;;3.20;92.00;;;;;;5066438;28;20490;-66
2020/12/28 04:28:15;;;;;;;0.90;0.90;;;3.20;92.00;;;;;;5062592;28;20016;-65
2020/12/28 04:30:40;;;;;;;1.25;0.90;;;3.10;92.00;;;;;;5051394;28;20024;-66
2020/12/28 04:33:06;;;;;;;2.55;0.90;;;3.10;92.30;;;;;;5070194;28;20399;-66
2020/12/28 04:35:31;;;;;;;1.27;0.80;;;3.10;92.30;;;;;;5073431;28;20059;-66
2020/12/28 04:37:57;;;;;;;1.40;0.80;;;3.20;92.30;;;;;;5064382;28;20024;-66
2020/12/28 04:40:23;;;;;;;1.50;0.90;;;3.30;92.30;;;;;;5060757;28;20048;-67
2020/12/28 04:42:48;;;;;;;1.20;0.95;;;3.40;92.10;;;;;;5065716;28;20073;-66
2020/12/28 04:45:14;;;;;;;0.98;0.75;;;3.30;92.20;;;;;;5048070;28;20499;-66
2020/12/28 04:47:39;;;;;;;1.38;0.82;;;3.30;92.30;;;;;;5065110;28;20340;-66
2020/12/28 04:50:06;;;;;;;1.20;0.88;;;3.30;92.40;;;;;;5062826;28;20028;-66
2020/12/28 04:52:33;;;;;;;3.83;1.10;;;3.40;92.20;;;;;;5065105;28;20020;-66
2020/12/28 04:54:59;;;;;;;1.25;0.93;;;3.40;92.30;;;;;;5066356;28;20029;-66
2020/12/28 04:57:24;;;;;;;1.73;1.00;;;3.40;92.30;;;;;;5062141;28;20024;-66
2020/12/28 04:59:54;;;;;;;1.77;1.20;;;3.40;92.50;;;;;;5062284;28;20044;-66
2020/12/28 05:02:21;;;;;;;1.30;1.00;;;3.50;92.10;;;;;;5052205;28;20097;-66
2020/12/28 05:04:47;;;;;;;1.10;0.93;;;3.50;92.20;;;;;;5064391;28;20126;-66
2020/12/28 05:07:13;;;;;;;1.67;1.02;;;3.50;92.20;;;;;;5063800;28;20377;-66
2020/12/28 05:09:38;;;;;;;1.40;0.95;;;3.50;92.20;;;;;;5061533;28;20055;-66
2020/12/28 05:12:05;;;;;;;0.80;0.80;;;3.50;92.30;;;;;;5047711;28;20334;-65
2020/12/28 05:14:31;;;;;;;1.52;1.20;;;3.50;92.40;;;;;;5056917;28;20021;-66
2020/12/28 05:17:06;;;;;;;1.00;0.90;;;3.50;92.30;;;;;;5066643;28;20033;-66
2020/12/28 05:19:34;;;;;;;0.77;0.75;;;3.50;92.40;;;;;;5065507;28;20485;-66
2020/12/28 05:22:00;;;;;;;0.80;0.70;;;3.50;92.20;;;;;;5059783;28;20056;-66
2020/12/28 05:24:26;;;;;;;1.25;0.80;;;3.50;92.30;;;;;;5064045;28;20055;-66
2020/12/28 05:26:52;;;;;;;1.55;1.05;;;3.50;92.40;;;;;;5045770;28;20044;-66
2020/12/28 05:29:25;;;;;;;1.08;0.93;;;3.50;92.10;;;;;;5063581;28;20074;-66
2020/12/28 05:31:52;;;;;;;0.77;0.77;;;3.50;92.30;;;;;;5064074;28;20028;-65
2020/12/28 05:34:25;;;;;;;1.00;0.80;;;3.60;92.10;;;;;;5067499;28;20025;-67
2020/12/28 05:36:54;;;;;;;0.95;0.80;;;3.60;92.00;;;;;;5068160;28;20125;-66
2020/12/28 05:39:22;;;;;;;0.77;0.70;;;3.50;92.20;;;;;;5065941;28;20024;-66
2020/12/28 05:41:53;;;;;;;1.42;0.82;;;3.60;92.00;;;;;;5068486;28;20086;-65
2020/12/28 05:44:19;;;;;;;1.30;1.10;;;3.60;91.80;;;;;;5067225;28;20032;-66
2020/12/28 05:46:49;;;;;;;2.22;0.95;;;3.70;91.50;;;;;;5073739;28;20039;-66
2020/12/28 05:49:18;;;;;;;1.23;0.90;;;3.70;91.50;;;;;;5063667;28;20055;-67
2020/12/28 05:51:45;;;;;;;1.00;0.80;;;3.70;91.50;;;;;;5063594;28;20243;-66
2020/12/28 05:54:11;;;;;;;1.20;0.90;;;3.70;91.20;;;;;;5059760;28;20458;-66
2020/12/28 05:56:43;;;;;;;0.90;0.90;;;3.80;91.20;;;;;;5048877;28;20131;-66
2020/12/28 05:59:11;;;;;;;1.08;0.80;;;3.80;90.90;;;;;;5045620;28;20021;-66
2020/12/28 06:01:43;;;;;;;1.55;0.80;;;3.80;90.90;;;;;;5044239;28;20070;-67
2020/12/28 06:04:13;;;;;;;3.65;2.00;;;3.80;90.80;;;;;;5046456;28;20388;-65
2020/12/28 06:06:40;;;;;;;1.83;1.10;;;3.80;91.20;;;;;;5030800;28;20852;-65
2020/12/28 06:11:35;;;;;;;3.33;1.20;;;3.80;91.40;;;;;;5025043;28;20134;-65
2020/12/28 06:14:15;;;;;;;1.35;1.10;;;3.80;91.00;;;;;;5008487;28;21118;-64
2020/12/28 06:16:41;;;;;;;2.72;1.35;;;3.90;90.60;;;;;;4998695;28;20425;-64
2020/12/28 06:19:17;;;;;;;2.72;1.50;;;3.90;90.90;;;;;;4987313;28;21887;-63
2020/12/28 06:21:43;;;;;;;1.88;1.20;;;3.90;90.80;;;;;;5006239;28;20511;-64
2020/12/28 06:24:09;;;;;;;4.03;1.92;;;3.90;90.90;;;;;;5004642;28;20098;-65
2020/12/28 06:26:34;;;;;;;3.03;1.60;;;3.90;91.00;;;;;;5004468;28;20051;-64
2020/12/28 06:29:05;;;;;;;3.55;1.80;;;3.90;91.00;;;;;;5006163;28;20264;-64
2020/12/28 06:31:31;;;;;;;2.83;1.40;;;3.90;91.10;;;;;;5015800;28;20052;-64
2020/12/28 06:33:56;;;;;;;1.92;1.15;;;3.90;90.80;;;;;;5027284;28;20157;-65
2020/12/28 06:36:22;;;;;;;5.68;2.38;;;4.00;90.60;;;;;;5044547;28;20074;-65
2020/12/28 06:38:55;;;;;;;3.05;1.70;;;4.00;90.50;;;;;;5043772;28;20132;-64
2020/12/28 06:41:30;;;;;;;1.27;1.08;;;4.00;90.40;;;;;;5047509;28;20037;-63
2020/12/28 06:43:59;;;;;;;3.30;1.50;;;4.00;90.40;;;;;;5016627;28;20152;-64
2020/12/28 06:46:25;;;;;;;1.15;1.00;;;3.90;91.00;;;;;;5019559;28;20041;-65
2020/12/28 06:48:51;;;;;;;2.13;1.30;;;4.00;90.70;;;;;;5044459;28;20021;-64
2020/12/28 06:51:17;;;;;;;1.05;0.95;;;3.90;91.10;;;;;;5046650;28;20098;-64
2020/12/28 06:53:43;;;;;;;1.23;0.93;;;3.90;90.90;;;;;;5033510;28;20076;-64
2020/12/28 06:56:10;;;;;;;1.30;0.85;;;4.00;90.70;;;;;;5041326;28;20025;-63
2020/12/28 06:58:36;;;;;;;0.93;0.90;;;4.00;90.70;;;;;;5032129;28;20049;-64
2020/12/28 07:01:06;;;;;;;1.70;0.85;;;4.00;90.40;;;;;;5037849;28;20490;-64
2020/12/28 07:03:33;;;;;;;1.02;0.82;;;4.00;90.60;;;;;;5032102;28;20064;-64
2020/12/28 07:06:05;;;;;;;1.20;0.80;;;4.00;90.60;;;;;;5022895;28;20045;-64
2020/12/28 07:08:39;;;;;;;1.30;0.90;;;4.10;90.40;;;;;;5015397;28;20276;-64
2020/12/28 07:11:05;;;;;;;0.75;0.70;;;4.00;90.60;;;;;;5019141;28;20068;-64
2020/12/28 07:13:34;;;;;;;3.85;0.70;;;4.00;90.80;;;;;;5036140;28;20128;-63
2020/12/28 07:16:04;;;;;;;2.20;1.10;;;4.00;90.60;;;;;;5018515;28;20029;-64
2020/12/28 07:18:30;;;;;;;0.98;0.90;;;4.00;90.50;;;;;;5030136;28;20061;-64
2020/12/28 07:20:57;;;;;;;0.90;0.80;;;4.10;90.60;;;;;;5027071;28;20056;-65
2020/12/28 07:23:24;;;;;;;0.73;0.73;;;4.10;90.90;;;;;;5031576;28;20090;-64
2020/12/28 07:26:03;;;;;;;1.02;0.82;;;4.10;90.70;;;;;;5027135;28;20040;-65
2020/12/28 07:28:29;;;;;;;1.08;0.80;;;4.00;91.10;;;;;;5041936;28;20085;-65
2020/12/28 07:30:59;;;;;;;1.35;0.90;;;4.00;91.60;;;;;;5021952;28;20420;-64
2020/12/28 07:33:24;;;;;;;1.05;0.70;;;3.90;92.10;;;;;;5010718;28;20129;-64
2020/12/28 07:36:08;;;;;;;0.80;0.80;;;3.90;92.40;;;;;;5026857;28;20025;-64
2020/12/28 07:38:33;;;;;;;2.08;0.95;;;3.80;92.40;;;;;;5031892;28;20021;-64
2020/12/28 07:41:00;;;;;;;1.50;1.00;;;3.80;92.50;;;;;;5046421;28;20067;-64
2020/12/28 07:43:27;;;;;;;1.05;0.90;;;3.80;92.80;;;;;;5036050;28;20432;-64
2020/12/28 07:45:53;;;;;;;0.98;0.88;;;3.80;92.70;;;;;;5029276;28;20091;-63
2020/12/28 07:48:20;;;;;;;2.22;0.80;;;3.80;92.80;;;;;;5031769;28;20045;-64
2020/12/28 07:50:52;;;;;;;1.77;0.93;;;3.80;93.00;;;;;;5026260;28;20099;-64
2020/12/28 07:53:25;;;;;;;1.65;1.05;;;3.80;92.80;;;;;;5036059;28;20036;-64
2020/12/28 07:56:00;;;;;;;0.93;0.90;;;3.80;93.30;;;;;;5038547;28;20063;-64
2020/12/28 07:58:46;;;;;;;1.33;1.00;;;3.80;93.10;;;;;;5031210;28;20025;-64
2020/12/28 08:01:40;;;;;;;1.52;1.15;;;3.70;93.30;;;;;;5040699;28;20500;-64
2020/12/28 08:04:08;;;;;;;1.42;1.13;;;3.80;93.50;;;;;;5025216;28;20087;-63
2020/12/28 08:06:34;;;;;;;1.50;1.17;;;3.80;93.70;;;;;;5044324;28;20369;-63
2020/12/28 08:09:02;;;;;;;2.10;1.48;;;3.80;93.40;;;;;;5021013;28;20081;-63
2020/12/28 08:11:32;;;;;;;4.75;1.30;;;3.70;93.70;;;;;;5017301;28;20037;-63
2020/12/28 08:13:58;;;;;;;3.50;1.45;;;3.70;93.80;;;;;;5005149;28;20559;-64
2020/12/28 08:16:27;;;;;;;1.25;1.15;;;3.80;93.80;;;;;;5003654;28;20022;-63
2020/12/28 08:18:54;;;;;;;2.40;1.25;;;3.70;94.00;;;;;;5003288;28;20630;-63
2020/12/28 08:21:23;;;;;;;1.55;1.15;;;3.70;94.10;;;;;;5002801;28;20041;-63
2020/12/28 08:23:55;;;;;;;1.75;1.35;;;3.70;94.30;;;;;;5004826;28;20032;-64
2020/12/28 08:26:26;;;;;;;2.08;1.40;;;3.70;94.40;;;;;;5004046;28;20287;-63
2020/12/28 08:28:54;;;;;;;1.27;1.00;;;3.70;94.40;;;;;;5003512;28;20037;-64
2020/12/28 08:31:34;;;;;;;1.73;1.35;;;3.70;94.50;;;;;;5003108;28;20099;-64
2020/12/28 08:34:08;;;;;;;2.35;1.40;;;3.60;94.70;;;;;;5002987;28;20079;-63
2020/12/28 08:36:42;;;;;;;1.92;1.38;;;3.60;94.70;;;;;;5003938;28;20029;-64
2020/12/28 08:39:16;;;;;;;2.58;1.42;;;3.60;94.80;;;;;;5003559;28;20084;-65
2020/12/28 08:41:54;;;;;;;3.95;1.70;;;3.60;94.90;;;;;;5002721;28;20077;-64
2020/12/28 08:44:41;;;;;;;1.83;1.48;;;3.60;94.80;;;;;;5004176;28;20705;-64
2020/12/28 08:47:12;;;;;;;2.08;1.40;;;3.60;94.80;;;;;;5003836;28;20124;-64
2020/12/28 08:49:40;;;;;;;2.92;1.45;;;3.60;94.60;;;;;;5003869;28;20087;-63
2020/12/28 08:52:14;;;;;;;2.65;1.70;;;3.50;94.60;;;;;;5003381;28;20103;-65
2020/12/28 08:54:40;;;;;;;1.90;1.42;;;3.50;94.70;;;;;;5005063;28;20029;-65
2020/12/28 08:57:06;;;;;;;3.20;1.58;;;3.50;94.50;;;;;;5003106;28;20105;-64
2020/12/28 08:59:32;;;;;;;3.15;1.60;;;3.50;94.30;;;;;;5004527;28;20440;-64
2020/12/28 09:01:58;;;;;;;2.97;1.40;;;3.40;93.90;;;;;;5003358;28;20051;-67
2020/12/28 09:04:24;;;;;;;3.40;1.60;;;3.40;93.90;;;;;;5006667;28;20053;-69
2020/12/28 09:06:51;;;;;;;2.70;1.65;;;3.40;94.10;;;;;;5033632;28;20055;-69
2020/12/28 09:09:18;;;;;;;5.22;1.83;;;3.40;93.70;;;;;;5036466;28;20024;-69
2020/12/28 09:11:45;;;;;;;4.40;1.80;;;3.40;93.50;;;;;;5043831;28;20225;-68
2020/12/28 09:14:10;;;;;;;4.13;1.60;;;3.40;93.30;;;;;;5034925;28;20032;-68
2020/12/28 09:16:36;;;;;;;4.78;1.48;;;3.40;93.30;;;;;;5022140;28;20037;-68
2020/12/28 09:19:03;;;;;;;3.78;1.60;;;3.40;93.50;;;;;;5036748;28;20021;-67
2020/12/28 09:21:29;;;;;;;2.40;1.33;;;3.50;93.40;;;;;;5042484;28;20364;-68
2020/12/28 09:23:54;;;;;;;3.90;1.65;;;3.50;93.10;;;;;;5036994;28;20104;-69
2020/12/28 09:26:20;;;;;;;4.32;2.03;;;3.60;93.20;;;;;;5044014;28;20037;-69
2020/12/28 09:28:46;;;;;;;1.75;1.20;;;3.60;93.00;;;;;;5033802;28;20483;-68
2020/12/28 09:31:12;;;;;;;2.65;1.50;;;3.60;92.70;;;;;;5037910;28;20021;-69
2020/12/28 09:33:38;;;;;;;2.53;1.60;;;3.70;92.50;;;;;;5040459;28;20337;-68
2020/12/28 09:36:04;;;;;;;2.53;1.42;;;3.70;92.80;;;;;;5043998;28;20110;-69
2020/12/28 09:38:29;;;;;;;2.33;1.40;;;3.80;92.80;;;;;;5032761;28;20028;-67
2020/12/28 09:40:55;;;;;;;2.00;1.20;;;3.80;92.50;;;;;;5039694;28;20029;-68
2020/12/28 09:43:21;;;;;;;2.13;1.45;;;3.90;92.20;;;;;;5036817;28;20091;-68
2020/12/28 09:45:47;;;;;;;4.45;1.70;;;3.90;92.00;;;;;;5027859;28;20445;-69
2020/12/28 09:48:13;;;;;;;3.88;1.70;;;3.90;91.90;;;;;;5034427;28;20097;-69
2020/12/28 09:50:38;;;;;;;3.20;1.50;;;4.00;92.00;;;;;;5025419;28;20098;-65
2020/12/28 09:53:04;;;;;;;2.47;1.40;;;4.10;91.40;;;;;;5033768;28;20469;-65
2020/12/28 09:55:29;;;;;;;2.40;1.40;;;4.10;91.50;;;;;;5027812;28;20576;-67
2020/12/28 09:57:55;;;;;;;3.35;1.27;;;4.20;91.40;;;;;;5009764;28;22956;-68
2020/12/28 10:00:21;;;;;;;2.92;1.35;;;4.20;91.10;;;;;;5028266;28;20036;-68
2020/12/28 10:02:47;;;;;;;1.95;1.23;;;4.30;91.20;;;;;;5043692;28;20021;-67
2020/12/28 10:05:13;;;;;;;2.20;1.42;;;4.30;91.10;;;;;;5029710;28;20105;-64
2020/12/28 10:07:39;;;;;;;2.17;1.20;;;4.30;91.10;;;;;;5042605;28;20033;-67
2020/12/28 10:10:06;;;;;;;3.08;1.23;;;4.30;91.10;;;;;;5030954;28;20121;-66
2020/12/28 10:12:32;;;;;;;1.65;1.40;;;4.30;91.40;;;;;;5036023;28;20064;-68
2020/12/28 10:14:58;;;;;;;1.80;1.15;;;4.20;90.80;;;;;;5025054;28;20101;-66
2020/12/28 10:17:24;;;;;;;2.67;1.40;;;4.20;91.20;;;;;;5040901;28;20120;-64
2020/12/28 10:19:50;;;;;;;2.83;1.50;;;4.20;91.10;;;;;;5026366;28;20033;-63
2020/12/28 10:22:16;;;;;;;2.85;1.50;;;4.20;91.40;;;;;;5013155;28;20339;-66
2020/12/28 10:24:41;;;;;;;3.10;1.50;;;4.20;91.50;;;;;;5014728;28;20040;-65
2020/12/28 10:27:08;;;;;;;2.03;1.50;;;4.20;91.30;;;;;;5037767;28;20025;-65
2020/12/28 10:29:33;;;;;;;2.92;1.63;;;4.20;91.20;;;;;;5026193;28;20040;-65
2020/12/28 10:31:59;;;;;;;2.97;1.70;;;4.20;91.30;;;;;;5027207;28;20024;-64
2020/12/28 10:34:27;;;;;;;2.08;1.25;;;4.20;91.20;;;;;;5027325;28;20048;-65
2020/12/28 10:36:53;;;;;;;2.53;1.38;;;4.20;91.30;;;;;;5036108;28;20036;-65
2020/12/28 10:39:19;;;;;;;2.35;1.30;;;4.20;91.00;;;;;;5043741;28;20048;-65
2020/12/28 10:41:45;;;;;;;2.65;1.55;;;4.20;90.90;;;;;;5039595;28;20771;-64
2020/12/28 10:44:11;;;;;;;2.53;1.50;;;4.20;91.40;;;;;;5040202;28;20529;-66
2020/12/28 10:46:37;;;;;;;3.47;1.50;;;4.20;91.10;;;;;;5040146;28;20032;-68
2020/12/28 10:49:04;;;;;;;2.67;1.63;;;4.20;90.70;;;;;;5040931;28;20021;-70
2020/12/28 10:51:30;;;;;;;3.22;1.60;;;4.20;91.10;;;;;;5045663;28;20029;-68
2020/12/28 10:53:56;;;;;;;3.28;1.70;;;4.20;90.90;;;;;;5020164;28;20086;-69
2020/12/28 10:56:28;;;;;;;3.05;1.70;;;4.30;91.30;;;;;;5046993;28;20044;-68
2020/12/28 10:58:55;;;;;;;2.85;1.55;;;4.30;91.10;;;;;;5043861;28;20013;-69
2020/12/28 11:01:22;;;;;;;3.53;1.70;;;4.30;90.90;;;;;;5042023;28;20025;-70
2020/12/28 11:03:50;;;;;;;2.72;1.42;;;4.40;90.90;;;;;;5031898;28;20072;-69
2020/12/28 11:06:16;;;;;;;2.88;1.52;;;4.30;90.60;;;;;;5044281;28;20044;-69
2020/12/28 11:08:42;;;;;;;2.75;1.60;;;4.40;90.80;;;;;;5040542;28;20025;-63
2020/12/28 11:11:09;;;;;;;2.47;1.48;;;4.40;90.70;;;;;;5043127;28;20340;-63
2020/12/28 11:13:34;;;;;;;2.75;1.60;;;4.40;90.50;;;;;;5038908;28;20040;-63
2020/12/28 11:16:00;;;;;;;3.92;1.70;;;4.40;90.90;;;;;;5043691;28;20040;-63
2020/12/28 11:18:26;;;;;;;2.35;1.50;;;4.40;90.80;;;;;;5037269;28;20358;-63
2020/12/28 11:20:51;;;;;;;2.50;1.58;;;4.40;90.70;;;;;;5043145;28;20416;-63
2020/12/28 11:23:17;;;;;;;2.70;1.60;;;4.40;90.70;;;;;;5027616;28;20411;-63
2020/12/28 11:25:43;;;;;;;2.13;1.52;;;4.50;91.10;;;;;;5033899;28;20445;-64
2020/12/28 11:28:08;;;;;;;2.03;1.45;;;4.50;90.90;;;;;;5037393;28;20032;-63
2020/12/28 11:30:34;;;;;;;3.10;1.80;;;4.50;90.90;;;;;;5031370;28;20135;-64
2020/12/28 11:33:00;;;;;;;3.72;1.90;;;4.50;91.20;;;;;;5024324;28;20071;-64
2020/12/28 11:35:25;;;;;;;4.82;2.30;;;4.50;90.90;;;;;;5013664;28;20143;-63
2020/12/28 11:37:51;;;;;;;4.00;2.20;;;4.50;91.00;;;;;;5038299;28;20031;-63
2020/12/28 11:40:17;;;;;;;3.20;2.00;;;4.50;91.20;;;;;;5022586;28;20145;-63
2020/12/28 11:42:42;;;;;;;4.80;2.60;;;4.50;91.50;;;;;;5034600;28;20507;-63
2020/12/28 11:45:09;;;;;;;3.50;2.13;;;4.50;91.20;;;;;;5031944;28;20029;-64
2020/12/28 11:47:36;;;;;;;3.65;2.00;;;4.40;91.20;;;;;;5039281;28;20066;-63
2020/12/28 11:50:05;;;;;;;2.67;1.90;;;4.40;91.30;;;;;;5034353;28;20041;-64
2020/12/28 11:52:31;;;;;;;4.43;2.05;;;4.40;91.30;;;;;;5038494;28;20123;-67
2020/12/28 11:54:57;;;;;;;4.60;2.05;;;4.50;91.30;;;;;;5038801;28;20025;-66
2020/12/28 11:57:23;;;;;;;3.03;1.90;;;4.40;91.10;;;;;;5015642;28;20132;-67
2020/12/28 11:59:48;;;;;;;4.65;2.35;;;4.40;91.20;;;;;;5014509;28;20079;-67
2020/12/28 12:02:14;;;;;;;5.57;1.88;;;4.40;91.40;;;;;;5040784;28;20140;-67
2020/12/28 12:04:49;;;;;;;4.07;2.60;;;4.40;91.30;;;;;;5038160;28;20239;-66
2020/12/28 12:07:20;;;;;;;5.93;2.40;;;4.40;91.20;;;;;;5017794;28;20132;-67
2020/12/28 12:09:45;;;;;;;5.38;2.55;;;4.40;91.30;;;;;;5032339;28;20349;-65
2020/12/28 12:12:12;;;;;;;5.85;2.45;;;4.40;91.50;;;;;;5037545;28;20036;-64
2020/12/28 12:14:37;;;;;;;4.80;2.22;;;4.40;91.60;;;;;;5031396;28;20036;-64
2020/12/28 12:17:03;;;;;;;3.05;1.92;;;4.40;91.50;;;;;;5015312;28;20424;-65
2020/12/28 12:19:29;;;;;;;3.35;1.95;;;4.40;91.40;;;;;;5031753;28;20086;-64
2020/12/28 12:21:54;;;;;;;3.88;2.17;;;4.40;91.40;;;;;;5032118;28;20030;-65
2020/12/28 12:24:20;;;;;;;3.67;1.90;;;4.40;91.70;;;;;;5024044;28;20021;-64
2020/12/28 12:26:46;;;;;;;3.97;1.92;;;4.40;91.80;;;;;;5024576;28;20041;-64
2020/12/28 12:29:12;;;;;;;5.22;2.15;;;4.40;91.70;;;;;;5032460;28;20070;-65
2020/12/28 12:31:37;;;;;;;3.33;1.90;;;4.50;91.70;;;;;;5034931;28;20147;-64
2020/12/28 12:34:03;;;;;;;3.95;2.10;;;4.60;91.80;;;;;;5035154;28;20021;-65
2020/12/28 12:36:29;;;;;;;4.90;2.20;;;4.60;91.70;;;;;;5034269;28;20053;-65
2020/12/28 12:38:54;;;;;;;3.33;1.92;;;4.60;91.50;;;;;;5024274;28;20036;-65
2020/12/28 12:41:21;;;;;;;2.80;1.90;;;4.60;91.40;;;;;;5032663;28;20036;-64
2020/12/28 12:43:47;;;;;;;3.78;1.92;;;4.60;91.40;;;;;;5036413;28;20475;-64
2020/12/28 12:46:14;;;;;;;3.10;1.80;;;4.60;91.30;;;;;;5036880;28;20441;-64
2020/12/28 12:48:43;;;;;;;3.15;1.42;;;4.60;91.10;;;;;;5029161;28;20025;-64
2020/12/28 12:51:10;;;;;;;3.75;1.95;;;4.60;91.20;;;;;;5030428;28;20029;-64
2020/12/28 12:53:36;;;;;;;3.53;1.65;;;4.60;91.10;;;;;;5033022;28;20031;-64
2020/12/28 12:56:02;;;;;;;3.05;1.50;;;4.70;91.10;;;;;;5033274;28;20041;-64
2020/12/28 12:58:28;;;;;;;2.13;1.27;;;4.70;91.20;;;;;;5027925;28;20448;-65